createdAt,value
2018-10-18T00:01:17.791Z,8.53
2018-10-18T00:03:46.446Z,8.51
2018-10-18T00:06:15.335Z,8.50
2018-10-18T00:08:43.971Z,8.47
2018-10-18T00:11:13.472Z,8.42
2018-10-18T00:13:42.200Z,8.41
2018-10-18T00:16:11.546Z,8.46
2018-10-18T00:18:40.619Z,8.28
2018-10-18T00:21:09.984Z,8.26
2018-10-18T00:23:39.234Z,8.13
2018-10-18T00:26:08.629Z,8.16
2018-10-18T00:28:37.206Z,8.18
2018-10-18T00:31:06.120Z,8.15
2018-10-18T00:33:35.120Z,8.19
2018-10-18T00:36:04.578Z,8.19
2018-10-18T00:38:34.046Z,8.23
2018-10-18T00:41:02.797Z,8.15
2018-10-18T00:43:31.836Z,8.21
2018-10-18T00:46:00.728Z,8.20
2018-10-18T00:48:29.410Z,8.21
2018-10-18T00:50:58.461Z,8.21
2018-10-18T00:53:27.186Z,8.13
2018-10-18T00:55:56.156Z,8.11
2018-10-18T00:58:25.955Z,8.16
2018-10-18T01:00:54.632Z,8.15
2018-10-18T01:03:23.750Z,8.19
2018-10-18T01:05:52.949Z,8.23
2018-10-18T01:08:23.358Z,8.20
2018-10-18T01:10:53.131Z,8.10
2018-10-18T01:13:21.800Z,8.12
2018-10-18T01:15:50.493Z,7.93
2018-10-18T01:18:19.739Z,7.77
2018-10-18T01:20:48.373Z,7.78
2018-10-18T01:23:17.676Z,7.77
2018-10-18T01:25:46.653Z,7.85
2018-10-18T01:28:15.809Z,7.88
2018-10-18T01:30:44.616Z,7.89
2018-10-18T01:33:13.392Z,7.90
2018-10-18T01:35:42.992Z,7.87
2018-10-18T01:38:11.910Z,7.88
2018-10-18T01:40:40.521Z,7.92
2018-10-18T01:43:09.757Z,7.93
2018-10-18T01:45:38.486Z,7.88
2018-10-18T01:48:08.381Z,7.92
2018-10-18T01:50:37.027Z,7.80
2018-10-18T01:53:06.252Z,7.68
2018-10-18T01:55:36.672Z,7.52
2018-10-18T01:58:06.031Z,7.53
2018-10-18T02:00:34.888Z,7.58
2018-10-18T02:03:04.412Z,7.58
2018-10-18T02:05:33.851Z,7.60
2018-10-18T02:08:02.742Z,7.62
2018-10-18T02:10:31.807Z,7.65
2018-10-18T02:13:00.884Z,7.61
2018-10-18T02:15:29.603Z,7.52
2018-10-18T02:17:58.461Z,7.39
2018-10-18T02:20:27.737Z,7.42
2018-10-18T02:22:56.794Z,7.39
2018-10-18T02:25:25.893Z,7.37
2018-10-18T02:27:54.539Z,7.38
2018-10-18T02:30:23.627Z,7.41
2018-10-18T02:32:52.819Z,7.38
2018-10-18T02:35:22.083Z,7.37
2018-10-18T02:37:51.247Z,7.36
2018-10-18T02:40:20.153Z,7.37
2018-10-18T02:42:48.812Z,7.38
2018-10-18T02:45:18.071Z,7.41
2018-10-18T02:47:47.366Z,7.35
2018-10-18T02:50:16.336Z,7.24
2018-10-18T02:52:45.773Z,7.26
2018-10-18T02:55:14.529Z,7.25
2018-10-18T02:57:44.043Z,7.29
2018-10-18T03:00:13.476Z,7.24
2018-10-18T03:02:42.850Z,7.16
2018-10-18T03:05:11.781Z,7.19
2018-10-18T03:07:41.122Z,7.19
2018-10-18T03:10:10.197Z,7.21
2018-10-18T03:12:38.772Z,7.22
2018-10-18T03:15:08.693Z,7.19
2018-10-18T03:17:37.887Z,7.05
2018-10-18T03:20:06.732Z,6.97
2018-10-18T03:22:35.369Z,7.02
2018-10-18T03:25:04.674Z,7.05
2018-10-18T03:27:33.730Z,7.04
2018-10-18T03:30:03.533Z,6.97
2018-10-18T03:32:32.267Z,6.99
2018-10-18T03:35:01.044Z,7.00
2018-10-18T03:37:30.674Z,7.00
2018-10-18T03:39:59.994Z,7.02
2018-10-18T03:42:29.153Z,7.03
2018-10-18T03:44:58.406Z,7.05
2018-10-18T03:47:27.057Z,7.00
2018-10-18T03:49:55.956Z,6.94
2018-10-18T03:52:25.053Z,6.92
2018-10-18T03:54:54.343Z,6.93
2018-10-18T03:57:23.623Z,6.91
2018-10-18T03:59:52.980Z,6.95
2018-10-18T04:02:21.927Z,6.97
2018-10-18T04:04:51.100Z,6.98
2018-10-18T04:07:20.259Z,6.98
2018-10-18T04:09:49.062Z,6.79
2018-10-18T04:12:18.279Z,6.76
2018-10-18T04:14:47.084Z,6.79
2018-10-18T04:17:16.200Z,6.80
2018-10-18T04:19:45.528Z,6.79
2018-10-18T04:22:14.293Z,6.80
2018-10-18T04:24:42.979Z,6.84
2018-10-18T04:27:11.648Z,6.83
2018-10-18T04:29:41.389Z,6.85
2018-10-18T04:32:10.304Z,6.85
2018-10-18T04:34:39.047Z,6.85
2018-10-18T04:37:07.766Z,6.80
2018-10-18T04:39:36.707Z,6.74
2018-10-18T04:42:05.846Z,6.73
2018-10-18T04:44:34.755Z,6.72
2018-10-18T04:47:04.183Z,6.72
2018-10-18T04:49:33.183Z,6.70
2018-10-18T04:52:02.812Z,6.71
2018-10-18T04:54:31.711Z,6.75
2018-10-18T04:57:00.937Z,6.76
2018-10-18T04:59:29.660Z,6.70
2018-10-18T05:01:58.308Z,6.66
2018-10-18T05:04:27.068Z,6.70
2018-10-18T05:06:55.932Z,6.63
2018-10-18T05:09:26.297Z,6.64
2018-10-18T05:11:55.275Z,6.63
2018-10-18T05:14:24.597Z,6.61
2018-10-18T05:16:54.617Z,6.49
2018-10-18T05:19:24.150Z,6.46
2018-10-18T05:21:53.084Z,6.49
2018-10-18T05:24:22.074Z,6.50
2018-10-18T05:26:50.704Z,6.44
2018-10-18T05:29:19.602Z,6.49
2018-10-18T05:31:48.327Z,6.44
2018-10-18T05:34:17.237Z,6.39
2018-10-18T05:36:46.499Z,6.37
2018-10-18T05:39:15.283Z,6.45
2018-10-18T05:41:45.553Z,6.39
2018-10-18T05:44:14.219Z,6.34
2018-10-18T05:46:43.435Z,6.32
2018-10-18T05:49:12.625Z,6.29
2018-10-18T05:51:41.888Z,6.26
2018-10-18T05:54:10.782Z,6.25
2018-10-18T05:56:40.457Z,6.25
2018-10-18T05:59:09.650Z,6.28
2018-10-18T06:01:39.134Z,6.22
2018-10-18T06:04:08.114Z,6.23
2018-10-18T06:06:37.197Z,6.32
2018-10-18T06:09:09.913Z,6.41
2018-10-18T06:11:38.648Z,6.49
2018-10-18T06:14:07.344Z,6.57
2018-10-18T06:16:36.969Z,6.64
2018-10-18T06:19:06.512Z,6.71
2018-10-18T06:21:35.363Z,6.80
2018-10-18T06:24:04.717Z,6.86
2018-10-18T06:26:34.148Z,6.86
2018-10-18T06:29:03.688Z,6.77
2018-10-18T06:31:33.518Z,6.85
2018-10-18T06:34:02.550Z,6.99
2018-10-18T06:36:31.705Z,7.07
2018-10-18T06:39:00.710Z,7.18
2018-10-18T06:41:29.516Z,7.33
2018-10-18T06:43:58.405Z,7.48
2018-10-18T06:46:27.590Z,7.67
2018-10-18T06:48:57.083Z,7.85
2018-10-18T06:51:25.714Z,8.01
2018-10-18T06:53:54.548Z,8.14
2018-10-18T06:56:23.529Z,8.29
2018-10-18T06:58:52.976Z,8.40
2018-10-18T07:01:21.628Z,8.52
2018-10-18T07:03:51.662Z,8.67
2018-10-18T07:06:20.459Z,8.81
2018-10-18T07:08:49.345Z,8.89
2018-10-18T07:11:18.068Z,9.05
2018-10-18T07:13:47.108Z,9.22
2018-10-18T07:16:16.349Z,9.38
2018-10-18T07:18:45.154Z,9.55
2018-10-18T07:21:13.958Z,9.58
2018-10-18T07:23:43.093Z,9.58
2018-10-18T07:26:12.111Z,9.64
2018-10-18T07:28:41.043Z,9.74
2018-10-18T07:31:09.852Z,9.99
2018-10-18T07:33:38.880Z,10.17
2018-10-18T07:36:07.871Z,10.45
2018-10-18T07:38:36.910Z,10.66
2018-10-18T07:41:05.952Z,10.88
2018-10-18T07:43:35.795Z,11.06
2018-10-18T07:46:05.234Z,11.11
2018-10-18T07:48:34.243Z,11.32
2018-10-18T07:51:03.908Z,11.56
2018-10-18T07:53:32.820Z,11.87
2018-10-18T07:56:02.020Z,12.08
2018-10-18T07:58:31.339Z,12.26
2018-10-18T08:01:00.668Z,12.60
2018-10-18T08:03:30.003Z,13.13
2018-10-18T08:05:58.749Z,13.55
2018-10-18T08:08:28.099Z,14.23
2018-10-18T08:10:57.326Z,15.07
2018-10-18T08:13:26.777Z,16.35
2018-10-18T08:15:55.902Z,17.21
2018-10-18T08:18:25.288Z,17.94
2018-10-18T08:20:54.222Z,18.97
2018-10-18T08:23:23.088Z,19.38
2018-10-18T08:25:51.741Z,19.57
2018-10-18T08:28:20.655Z,19.60
2018-10-18T08:30:53.266Z,19.91
2018-10-18T08:33:23.193Z,20.96
2018-10-18T08:35:52.214Z,21.36
2018-10-18T08:38:21.991Z,21.67
2018-10-18T08:40:51.255Z,21.84
2018-10-18T08:43:21.128Z,21.89
2018-10-18T08:45:50.784Z,21.80
2018-10-18T08:48:20.438Z,22.07
2018-10-18T08:50:49.944Z,22.77
2018-10-18T08:53:18.570Z,22.46
2018-10-18T08:55:48.185Z,22.64
2018-10-18T08:58:16.994Z,22.48
2018-10-18T09:00:46.610Z,22.95
2018-10-18T09:03:15.708Z,22.31
2018-10-18T09:05:44.469Z,22.39
2018-10-18T09:08:14.179Z,22.04
2018-10-18T09:10:43.029Z,22.33
2018-10-18T09:13:11.848Z,22.90
2018-10-18T09:15:40.589Z,23.05
2018-10-18T09:18:09.277Z,23.66
2018-10-18T09:20:38.405Z,24.15
2018-10-18T09:23:07.294Z,24.16
2018-10-18T09:25:36.883Z,24.34
2018-10-18T09:28:06.248Z,25.33
2018-10-18T09:30:35.381Z,26.18
2018-10-18T09:33:04.264Z,26.44
2018-10-18T09:35:33.000Z,26.69
2018-10-18T09:38:01.891Z,26.99
2018-10-18T09:40:30.763Z,26.78
2018-10-18T09:42:59.579Z,25.83
2018-10-18T09:45:28.963Z,27.03
2018-10-18T09:47:57.935Z,25.93
2018-10-18T09:50:27.159Z,25.64
2018-10-18T09:52:56.372Z,26.23
2018-10-18T09:55:25.091Z,26.42
2018-10-18T09:57:53.850Z,26.82
2018-10-18T10:00:28.371Z,26.67
2018-10-18T10:03:03.011Z,27.25
2018-10-18T10:05:32.229Z,27.68
2018-10-18T10:08:01.449Z,27.96
2018-10-18T10:10:30.760Z,28.90
2018-10-18T10:12:59.559Z,29.56
2018-10-18T10:15:28.376Z,28.82
2018-10-18T10:17:58.285Z,29.06
2018-10-18T10:20:27.740Z,28.96
2018-10-18T10:22:56.775Z,27.65
2018-10-18T10:25:26.187Z,28.28
2018-10-18T10:27:55.304Z,29.15
2018-10-18T10:30:24.543Z,29.34
2018-10-18T10:32:54.110Z,30.29
2018-10-18T10:35:22.923Z,31.18
2018-10-18T10:37:52.024Z,31.47
2018-10-18T10:40:21.492Z,32.27
2018-10-18T10:42:50.663Z,31.73
2018-10-18T10:45:20.019Z,31.60
2018-10-18T10:47:48.996Z,32.49
2018-10-18T10:50:17.791Z,33.97
2018-10-18T10:52:47.435Z,34.51
2018-10-18T10:55:16.861Z,35.44
2018-10-18T10:57:45.749Z,34.23
2018-10-18T11:00:28.701Z,33.03
2018-10-18T11:02:57.770Z,32.30
2018-10-18T11:05:27.210Z,32.11
2018-10-18T11:07:56.518Z,32.49
2018-10-18T11:10:25.571Z,32.60
2018-10-18T11:12:55.879Z,33.00
2018-10-18T11:15:25.065Z,33.61
2018-10-18T11:17:54.854Z,34.31
2018-10-18T11:20:23.557Z,35.43
2018-10-18T11:22:53.142Z,35.55
2018-10-18T11:25:20.935Z,36.05
2018-10-18T11:27:51.184Z,36.85
2018-10-18T11:30:20.236Z,37.03
2018-10-18T11:32:48.816Z,36.79
2018-10-18T11:35:17.537Z,36.77
2018-10-18T11:37:47.111Z,37.02
2018-10-18T11:40:16.587Z,37.08
2018-10-18T11:42:45.642Z,37.14
2018-10-18T11:45:14.547Z,36.23
2018-10-18T11:47:43.439Z,36.70
2018-10-18T11:50:12.302Z,35.78
2018-10-18T11:52:41.295Z,35.56
2018-10-18T11:55:10.479Z,36.13
2018-10-18T11:57:39.260Z,36.05
2018-10-18T12:00:10.947Z,35.24
2018-10-18T12:02:40.516Z,34.65
2018-10-18T12:05:09.457Z,33.69
2018-10-18T12:07:38.435Z,32.51
2018-10-18T12:10:08.273Z,31.73
2018-10-18T12:12:38.070Z,31.01
2018-10-18T12:15:09.034Z,32.27
2018-10-18T12:17:37.780Z,33.36
2018-10-18T12:20:08.497Z,33.61
2018-10-18T12:22:37.159Z,34.48
2018-10-18T12:25:06.269Z,33.82
2018-10-18T12:27:35.281Z,34.02
2018-10-18T12:30:05.051Z,34.36
2018-10-18T12:32:34.749Z,35.16
2018-10-18T12:35:04.177Z,35.58
2018-10-18T12:37:33.149Z,35.19
2018-10-18T12:40:02.652Z,35.99
2018-10-18T12:42:31.925Z,35.88
2018-10-18T12:45:00.899Z,37.30
2018-10-18T12:47:30.169Z,37.49
2018-10-18T12:49:58.911Z,37.56
2018-10-18T12:52:27.752Z,37.93
2018-10-18T12:54:56.824Z,36.63
2018-10-18T12:57:26.019Z,36.80
2018-10-18T12:59:55.005Z,37.16
2018-10-18T13:02:23.833Z,37.11
2018-10-18T13:04:53.084Z,36.81
2018-10-18T13:07:21.995Z,35.46
2018-10-18T13:09:50.906Z,34.39
2018-10-18T13:12:19.646Z,33.58
2018-10-18T13:14:48.632Z,32.91
2018-10-18T13:17:17.935Z,32.29
2018-10-18T13:19:48.365Z,31.24
2018-10-18T13:22:17.234Z,30.50
2018-10-18T13:24:48.126Z,29.72
2018-10-18T13:27:16.828Z,29.16
2018-10-18T13:29:45.602Z,29.43
2018-10-18T13:32:14.407Z,30.18
2018-10-18T13:34:43.156Z,30.58
2018-10-18T13:37:12.033Z,30.99
2018-10-18T13:39:40.860Z,30.43
2018-10-18T13:42:10.480Z,30.14
2018-10-18T13:44:39.383Z,29.43
2018-10-18T13:47:08.198Z,29.58
2018-10-18T13:49:37.056Z,30.05
2018-10-18T13:52:05.931Z,30.81
2018-10-18T13:54:35.453Z,31.81
2018-10-18T13:57:05.481Z,31.44
2018-10-18T13:59:45.266Z,31.90
2018-10-18T14:02:14.075Z,32.76
2018-10-18T14:04:42.547Z,32.51
2018-10-18T14:07:11.637Z,32.57
2018-10-18T14:09:40.508Z,32.43
2018-10-18T14:12:09.250Z,32.01
2018-10-18T14:14:38.717Z,31.08
2018-10-18T14:17:08.061Z,30.00
2018-10-18T14:19:37.062Z,29.65
2018-10-18T14:22:07.423Z,29.10
2018-10-18T14:24:36.606Z,28.44
2018-10-18T14:27:05.875Z,27.86
2018-10-18T14:29:34.722Z,26.60
2018-10-18T14:32:03.450Z,26.42
2018-10-18T14:34:32.233Z,25.96
2018-10-18T14:37:01.779Z,25.40
2018-10-18T14:39:30.959Z,25.29
2018-10-18T14:42:00.295Z,25.01
2018-10-18T14:44:29.178Z,24.68
2018-10-18T14:46:58.919Z,24.56
2018-10-18T14:49:27.962Z,24.44
2018-10-18T14:51:57.632Z,24.17
2018-10-18T14:54:26.443Z,24.05
2018-10-18T14:56:55.567Z,23.95
2018-10-18T14:59:24.425Z,23.87
2018-10-18T15:01:53.970Z,23.53
2018-10-18T15:04:23.550Z,23.49
2018-10-18T15:06:52.305Z,23.21
2018-10-18T15:09:21.912Z,23.26
2018-10-18T15:11:50.941Z,23.14
2018-10-18T15:14:20.222Z,23.05
2018-10-18T15:16:49.280Z,22.88
2018-10-18T15:19:18.168Z,22.77
2018-10-18T15:21:47.012Z,22.67
2018-10-18T15:24:15.997Z,22.50
2018-10-18T15:26:46.016Z,22.35
2018-10-18T15:29:15.503Z,22.26
2018-10-18T15:31:44.588Z,22.12
2018-10-18T15:34:13.310Z,21.90
2018-10-18T15:36:42.333Z,21.83
2018-10-18T15:39:12.268Z,21.71
2018-10-18T15:41:41.669Z,21.67
2018-10-18T15:44:12.159Z,21.48
2018-10-18T15:46:40.936Z,21.32
2018-10-18T15:49:10.388Z,21.19
2018-10-18T15:51:39.479Z,21.05
2018-10-18T15:54:08.642Z,20.89
2018-10-18T15:56:37.653Z,20.82
2018-10-18T15:59:07.156Z,20.59
2018-10-18T16:01:36.376Z,20.50
2018-10-18T16:04:05.618Z,20.41
2018-10-18T16:06:35.768Z,20.27
2018-10-18T16:09:08.058Z,20.15
2018-10-18T16:11:37.044Z,20.07
2018-10-18T16:14:06.380Z,19.88
2018-10-18T16:16:35.258Z,19.81
2018-10-18T16:19:04.374Z,19.71
2018-10-18T16:21:33.978Z,19.67
2018-10-18T16:24:02.777Z,19.50
2018-10-18T16:26:31.810Z,19.38
2018-10-18T16:29:01.719Z,19.30
2018-10-18T16:31:30.532Z,19.13
2018-10-18T16:33:59.511Z,19.04
2018-10-18T16:36:28.467Z,18.97
2018-10-18T16:38:57.697Z,18.84
2018-10-18T16:41:27.500Z,18.72
2018-10-18T16:43:56.350Z,18.61
2018-10-18T16:46:25.332Z,18.55
2018-10-18T16:48:55.442Z,18.42
2018-10-18T16:51:24.457Z,18.35
2018-10-18T16:53:53.521Z,18.20
2018-10-18T16:56:22.456Z,18.16
2018-10-18T16:58:51.763Z,18.11
2018-10-18T17:01:20.601Z,17.98
2018-10-18T17:03:49.453Z,17.92
2018-10-18T17:06:18.906Z,17.89
2018-10-18T17:08:48.707Z,17.77
2018-10-18T17:11:17.810Z,17.71
2018-10-18T17:13:46.731Z,17.66
2018-10-18T17:16:15.753Z,17.57
2018-10-18T17:18:44.644Z,17.48
2018-10-18T17:21:13.531Z,17.44
2018-10-18T17:23:42.583Z,17.36
2018-10-18T17:26:12.972Z,17.30
2018-10-18T17:28:42.008Z,17.20
2018-10-18T17:31:11.339Z,17.09
2018-10-18T17:33:41.731Z,17.05
2018-10-18T17:36:10.752Z,16.90
2018-10-18T17:38:40.765Z,16.84
2018-10-18T17:41:10.174Z,16.80
2018-10-18T17:43:39.346Z,16.76
2018-10-18T17:46:09.764Z,16.71
2018-10-18T17:48:38.833Z,16.70
2018-10-18T17:51:08.572Z,16.61
2018-10-18T17:53:37.486Z,16.59
2018-10-18T17:56:06.695Z,16.55
2018-10-18T17:58:35.739Z,16.52
2018-10-18T18:01:04.928Z,16.42
2018-10-18T18:03:34.062Z,16.34
2018-10-18T18:06:03.389Z,16.18
2018-10-18T18:08:32.788Z,16.00
2018-10-18T18:11:01.830Z,15.83
2018-10-18T18:13:31.002Z,15.64
2018-10-18T18:16:00.315Z,15.59
2018-10-18T18:18:29.233Z,15.49
2018-10-18T18:20:58.236Z,15.46
2018-10-18T18:23:27.071Z,15.36
2018-10-18T18:25:55.970Z,15.30
2018-10-18T18:28:25.471Z,15.21
2018-10-18T18:30:54.645Z,15.12
2018-10-18T18:33:23.842Z,15.04
2018-10-18T18:35:52.902Z,14.89
2018-10-18T18:38:22.165Z,14.83
2018-10-18T18:40:51.402Z,14.69
2018-10-18T18:43:21.552Z,14.66
2018-10-18T18:45:50.882Z,14.60
2018-10-18T18:48:20.044Z,14.51
2018-10-18T18:50:50.401Z,14.42
2018-10-18T18:53:19.559Z,14.31
2018-10-18T18:55:48.640Z,14.19
2018-10-18T18:58:17.486Z,14.04
2018-10-18T19:00:47.327Z,13.99
2018-10-18T19:03:16.436Z,13.74
2018-10-18T19:05:46.745Z,13.59
2018-10-18T19:08:16.111Z,13.48
2018-10-18T19:10:44.933Z,13.42
2018-10-18T19:13:13.920Z,13.47
2018-10-18T19:15:43.480Z,13.17
2018-10-18T19:18:12.721Z,12.89
2018-10-18T19:20:41.910Z,12.72
2018-10-18T19:23:11.214Z,12.56
2018-10-18T19:25:40.508Z,12.56
2018-10-18T19:28:09.710Z,12.49
2018-10-18T19:30:39.011Z,12.45
2018-10-18T19:33:07.947Z,12.40
2018-10-18T19:35:36.867Z,12.26
2018-10-18T19:38:05.898Z,12.02
2018-10-18T19:40:34.742Z,11.72
2018-10-18T19:43:04.199Z,11.59
2018-10-18T19:45:33.341Z,11.54
2018-10-18T19:48:02.461Z,11.40
2018-10-18T19:50:31.642Z,11.35
2018-10-18T19:53:01.010Z,11.41
2018-10-18T19:55:30.093Z,11.28
2018-10-18T19:57:59.425Z,11.21
2018-10-18T20:00:28.708Z,11.06
2018-10-18T20:02:57.722Z,11.02
2018-10-18T20:05:26.999Z,10.96
2018-10-18T20:07:56.121Z,10.74
2018-10-18T20:10:26.411Z,10.64
2018-10-18T20:12:57.318Z,10.80
2018-10-18T20:15:26.352Z,10.92
2018-10-18T20:17:57.043Z,11.04
2018-10-18T20:20:26.254Z,10.83
2018-10-18T20:22:55.454Z,10.75
2018-10-18T20:25:25.683Z,10.61
2018-10-18T20:27:55.411Z,10.62
2018-10-18T20:30:25.065Z,10.74
2018-10-18T20:32:54.249Z,10.69
2018-10-18T20:35:23.418Z,10.57
2018-10-18T20:37:52.559Z,10.55
2018-10-18T20:40:21.770Z,10.52
2018-10-18T20:42:50.885Z,10.57
2018-10-18T20:45:24.945Z,10.55
2018-10-18T20:47:55.226Z,10.46
2018-10-18T20:50:24.934Z,10.38
2018-10-18T20:52:53.990Z,10.29
2018-10-18T20:55:24.025Z,10.16
2018-10-18T20:57:53.606Z,10.01
2018-10-18T21:00:22.671Z,9.89
2018-10-18T21:02:51.397Z,9.92
2018-10-18T21:05:20.376Z,9.80
2018-10-18T21:07:50.338Z,9.77
2018-10-18T21:10:20.001Z,9.72
2018-10-18T21:12:48.836Z,9.79
2018-10-18T21:15:17.975Z,9.68
2018-10-18T21:17:47.381Z,9.56
2018-10-18T21:20:16.320Z,9.53
2018-10-18T21:22:45.521Z,9.51
2018-10-18T21:25:16.738Z,9.55
2018-10-18T21:27:45.515Z,9.47
2018-10-18T21:30:14.357Z,9.47
2018-10-18T21:32:43.856Z,9.40
2018-10-18T21:35:12.832Z,9.41
2018-10-18T21:37:41.799Z,9.39
2018-10-18T21:40:11.104Z,9.36
2018-10-18T21:42:40.323Z,9.42
2018-10-18T21:45:26.179Z,9.31
2018-10-18T21:47:56.284Z,9.32
2018-10-18T21:50:25.026Z,9.31
2018-10-18T21:52:55.779Z,9.28
2018-10-18T21:55:24.855Z,9.27
2018-10-18T21:57:53.769Z,9.27
2018-10-18T22:00:23.448Z,9.20
2018-10-18T22:02:52.601Z,9.11
2018-10-18T22:05:21.950Z,8.97
2018-10-18T22:07:51.565Z,8.96
2018-10-18T22:10:20.474Z,9.02
2018-10-18T22:12:49.536Z,9.01
2018-10-18T22:15:18.612Z,8.99
2018-10-18T22:17:47.929Z,9.03
2018-10-18T22:20:17.143Z,8.91
2018-10-18T22:22:45.898Z,8.87
2018-10-18T22:25:15.551Z,8.82
2018-10-18T22:27:44.807Z,8.80
2018-10-18T22:30:13.944Z,8.72
2018-10-18T22:32:42.605Z,8.45
2018-10-18T22:35:11.258Z,8.45
2018-10-18T22:37:40.686Z,8.49
2018-10-18T22:40:10.127Z,8.53
2018-10-18T22:42:39.059Z,8.52
2018-10-18T22:45:09.051Z,8.52
2018-10-18T22:47:38.541Z,8.34
2018-10-18T22:50:08.009Z,8.29
2018-10-18T22:52:38.044Z,8.21
2018-10-18T22:55:07.264Z,8.21
2018-10-18T22:57:36.719Z,8.22
2018-10-18T23:00:06.780Z,8.14
2018-10-18T23:02:36.002Z,8.05
2018-10-18T23:05:05.157Z,8.08
2018-10-18T23:07:34.555Z,8.18
2018-10-18T23:10:04.479Z,8.11
2018-10-18T23:12:33.860Z,7.99
2018-10-18T23:15:03.247Z,7.95
2018-10-18T23:17:32.103Z,7.82
2018-10-18T23:20:01.294Z,7.85
2018-10-18T23:22:30.894Z,7.84
2018-10-18T23:24:59.771Z,7.84
2018-10-18T23:27:31.941Z,7.85
2018-10-18T23:30:01.085Z,7.91
2018-10-18T23:32:30.344Z,7.74
2018-10-18T23:34:59.458Z,7.74
2018-10-18T23:37:28.681Z,7.78
2018-10-18T23:39:57.834Z,7.80
2018-10-18T23:42:26.634Z,7.77
2018-10-18T23:44:55.605Z,7.75
2018-10-18T23:47:24.951Z,7.78
2018-10-18T23:49:53.952Z,7.79
2018-10-18T23:52:23.104Z,7.78
2018-10-18T23:54:52.776Z,7.73
2018-10-18T23:57:21.598Z,7.63
2018-10-18T23:59:51.166Z,7.60
